Time;durP1;ratioP1;P1;durP2;ratioP2;P2;SDS_P1;SDS_P2;PMS_P1;PMS_P2;Temp;Humidity;BMP_temperature;BMP_pressure;BME280_temperature;BME280_humidity;BME280_pressure;Samples;Min_cycle;Max_cycle;Signal;HPM_P1;HPM_P2
2021/05/15 00:01:03;;;;;;;1.03;0.40;;;;;;;7.53;68.03;94998.78;5055527;28;20177;-79
2021/05/15 00:03:28;;;;;;;1.40;0.83;;;;;;;7.50;68.24;94986.13;5041668;28;20194;-79
2021/05/15 00:05:54;;;;;;;0.47;0.40;;;;;;;7.50;68.29;94986.13;5037247;28;20185;-79
2021/05/15 00:08:19;;;;;;;1.60;0.70;;;;;;;7.51;68.32;94987.78;5058084;28;20185;-80
2021/05/15 00:10:47;;;;;;;1.33;0.40;;;;;;;7.47;68.62;94986.44;5063842;28;20560;-80
2021/05/15 00:13:12;;;;;;;0.53;0.53;;;;;;;7.49;68.91;94981.94;5064827;28;20192;-78
2021/05/15 00:15:38;;;;;;;2.00;0.60;;;;;;;7.44;68.98;94978.97;5057066;28;20190;-78
2021/05/15 00:18:03;;;;;;;1.03;0.40;;;;;;;7.45;68.97;94984.94;5069444;28;20228;-79
2021/05/15 00:20:29;;;;;;;1.00;0.40;;;;;;;7.35;69.60;94980.63;5049888;28;20233;-79
2021/05/15 00:22:54;;;;;;;2.80;0.67;;;;;;;7.35;69.50;94974.66;5061144;28;20232;-78
2021/05/15 00:25:19;;;;;;;1.20;0.60;;;;;;;7.34;69.33;94970.44;5053513;28;20181;-79
2021/05/15 00:27:45;;;;;;;0.50;0.50;;;;;;;7.27;69.94;94974.56;5068634;28;20219;-78
2021/05/15 00:30:13;;;;;;;0.40;0.40;;;;;;;7.25;69.53;94974.69;5067839;28;20204;-78
2021/05/15 00:32:38;;;;;;;0.63;0.50;;;;;;;7.24;69.64;94972.22;5051921;28;20315;-79
2021/05/15 00:35:05;;;;;;;0.87;0.60;;;;;;;7.27;69.42;94970.19;5063413;28;20271;-79
2021/05/15 00:37:30;;;;;;;0.63;0.50;;;;;;;7.25;69.73;94966.13;5053250;28;20177;-79
2021/05/15 00:39:55;;;;;;;0.57;0.57;;;;;;;7.16;69.90;94961.81;5052379;28;20575;-80
2021/05/15 00:42:21;;;;;;;0.83;0.50;;;;;;;7.12;69.95;94970.78;5061104;28;20207;-78
2021/05/15 00:44:46;;;;;;;1.37;0.40;;;;;;;7.16;70.03;94970.38;5057314;28;20192;-79
2021/05/15 00:47:14;;;;;;;2.00;0.50;;;;;;;7.14;70.06;94966.28;5047103;28;20185;-80
2021/05/15 00:49:39;;;;;;;0.67;0.57;;;;;;;7.10;70.31;94968.34;5054886;28;20184;-79
2021/05/15 00:52:05;;;;;;;1.43;0.50;;;;;;;7.07;70.39;94959.13;5065402;28;20213;-79
2021/05/15 00:54:31;;;;;;;0.70;0.60;;;;;;;7.04;70.62;94956.81;5053306;28;20197;-79
2021/05/15 00:56:58;;;;;;;0.70;0.70;;;;;;;7.05;70.72;94953.25;5071313;28;20185;-80
2021/05/15 00:59:23;;;;;;;1.60;0.73;;;;;;;7.07;70.68;94960.91;5041147;28;20279;-80
2021/05/15 01:01:48;;;;;;;1.33;0.70;;;;;;;7.06;70.75;94959.25;5051344;28;20645;-78
2021/05/15 01:04:13;;;;;;;1.20;0.60;;;;;;;7.01;71.09;94959.69;5035889;28;20180;-77
2021/05/15 01:06:39;;;;;;;0.50;0.43;;;;;;;6.95;71.32;94956.84;5041642;28;20181;-78
2021/05/15 01:09:05;;;;;;;0.60;0.40;;;;;;;6.95;71.06;94965.38;5071007;28;20212;-79
2021/05/15 01:11:31;;;;;;;0.50;0.50;;;;;;;6.97;71.28;94967.81;5044941;28;20571;-80
2021/05/15 01:13:58;;;;;;;1.47;0.60;;;;;;;6.91;71.37;94973.56;5037758;28;20186;-76
2021/05/15 01:16:24;;;;;;;0.67;0.57;;;;;;;6.90;71.42;94966.78;5051674;28;20174;-80
2021/05/15 01:18:49;;;;;;;1.70;0.60;;;;;;;6.88;71.52;94972.06;5042483;28;20180;-79
2021/05/15 01:21:14;;;;;;;2.17;0.70;;;;;;;6.88;71.62;94964.31;5054076;28;20243;-78
2021/05/15 01:23:40;;;;;;;0.37;0.37;;;;;;;6.90;71.49;94954.69;5039232;28;20186;-79
2021/05/15 01:26:18;;;;;;;1.10;0.60;;;;;;;6.89;71.68;94965.97;5053643;28;20228;-78
2021/05/15 01:28:44;;;;;;;0.50;0.50;;;;;;;6.86;72.01;94968.81;5054309;28;20192;-78
2021/05/15 01:31:13;;;;;;;1.27;0.50;;;;;;;6.80;71.96;94965.03;5060695;28;20205;-80
2021/05/15 01:33:39;;;;;;;2.30;1.23;;;;;;;6.77;71.88;94970.44;5048383;28;20192;-78
2021/05/15 01:36:07;;;;;;;0.50;0.47;;;;;;;6.76;72.35;94962.84;5067314;28;20185;-80
2021/05/15 01:38:33;;;;;;;0.93;0.57;;;;;;;6.78;71.98;94964.34;5065649;28;20190;-78
2021/05/15 01:41:03;;;;;;;0.50;0.50;;;;;;;6.76;72.45;94958.50;5034017;28;20216;-80
2021/05/15 01:43:28;;;;;;;0.73;0.60;;;;;;;6.77;72.37;94967.06;5065061;28;20268;-80
2021/05/15 01:45:54;;;;;;;0.73;0.50;;;;;;;6.77;72.64;94956.72;5051519;28;20213;-79
2021/05/15 01:48:19;;;;;;;0.93;0.67;;;;;;;6.79;72.63;94958.22;5050679;28;20181;-78
2021/05/15 01:51:03;;;;;;;0.73;0.73;;;;;;;6.80;72.22;94959.88;5057488;28;20258;-79
2021/05/15 01:53:30;;;;;;;0.77;0.60;;;;;;;6.82;72.33;94968.28;5041331;28;20189;-80
2021/05/15 01:55:56;;;;;;;1.00;0.70;;;;;;;6.77;72.72;94959.31;5035322;28;20268;-77
2021/05/15 01:58:22;;;;;;;0.70;0.70;;;;;;;6.71;72.54;94955.50;5054851;28;20179;-78
2021/05/15 02:00:47;;;;;;;1.17;0.50;;;;;;;6.68;72.58;94948.06;5052871;28;20586;-79
2021/05/15 02:03:13;;;;;;;0.60;0.50;;;;;;;6.64;72.92;94951.06;5042885;28;20182;-78
2021/05/15 02:05:38;;;;;;;0.87;0.50;;;;;;;6.56;72.94;94938.84;5058727;28;20181;-78
2021/05/15 02:08:04;;;;;;;0.83;0.60;;;;;;;6.58;73.40;94942.09;5052324;28;20632;-78
2021/05/15 02:10:30;;;;;;;0.33;0.33;;;;;;;6.56;73.18;94948.34;5055171;28;20173;-78
2021/05/15 02:12:55;;;;;;;0.80;0.70;;;;;;;6.47;73.23;94948.22;5062207;28;20211;-79
2021/05/15 02:15:20;;;;;;;0.83;0.60;;;;;;;6.44;73.53;94942.50;5054718;28;20184;-78
2021/05/15 02:17:46;;;;;;;1.40;0.70;;;;;;;6.44;74.05;94940.75;5053517;28;20181;-79
2021/05/15 02:20:12;;;;;;;1.00;0.50;;;;;;;6.49;73.50;94943.75;5035192;28;20552;-79
2021/05/15 02:22:37;;;;;;;0.73;0.70;;;;;;;6.44;74.16;94940.75;5060221;28;20197;-78
2021/05/15 02:25:03;;;;;;;0.87;0.63;;;;;;;6.51;74.08;94939.25;5072960;28;20180;-77
2021/05/15 02:27:29;;;;;;;1.13;0.60;;;;;;;6.44;73.82;94935.59;5044927;28;20184;-78
2021/05/15 02:29:54;;;;;;;1.13;0.60;;;;;;;6.46;74.13;94925.16;5054640;28;20178;-79
2021/05/15 02:32:19;;;;;;;1.57;0.77;;;;;;;6.40;74.27;94921.34;5053531;28;20705;-79
2021/05/15 02:34:45;;;;;;;2.50;0.50;;;;;;;6.42;74.20;94927.19;5055699;28;20185;-78
2021/05/15 02:37:10;;;;;;;1.43;0.77;;;;;;;6.36;74.12;94929.47;5055508;28;20185;-79
2021/05/15 02:39:35;;;;;;;1.63;0.70;;;;;;;6.30;75.23;94938.59;5068830;28;20692;-78
2021/05/15 02:42:00;;;;;;;1.13;0.87;;;;;;;6.36;74.92;94926.91;5073213;28;20201;-78
2021/05/15 02:44:26;;;;;;;1.07;0.90;;;;;;;6.28;75.17;94921.66;5037470;28;20174;-78
2021/05/15 02:46:51;;;;;;;2.63;0.67;;;;;;;6.26;75.30;94929.50;5055322;28;20527;-79
2021/05/15 02:49:16;;;;;;;2.33;0.93;;;;;;;6.28;75.19;94935.34;5037389;28;20185;-78
2021/05/15 02:51:42;;;;;;;1.10;0.80;;;;;;;6.30;75.38;94930.06;5051172;28;20251;-78
2021/05/15 02:54:07;;;;;;;2.03;0.83;;;;;;;6.34;75.38;94932.19;5056954;28;20182;-79
2021/05/15 02:56:34;;;;;;;1.67;0.60;;;;;;;6.39;75.52;94931.81;5073788;28;20188;-79
2021/05/15 02:58:59;;;;;;;1.73;0.63;;;;;;;6.39;75.43;94924.88;5048035;28;20570;-79
2021/05/15 03:01:24;;;;;;;1.30;0.60;;;;;;;6.39;75.50;94924.06;5053688;28;20284;-79
2021/05/15 03:03:49;;;;;;;0.77;0.57;;;;;;;6.40;75.41;94921.34;5069405;28;20234;-78
2021/05/15 03:06:15;;;;;;;0.90;0.67;;;;;;;6.40;75.40;94929.09;5055326;28;20234;-78
2021/05/15 03:08:40;;;;;;;1.10;0.60;;;;;;;6.48;75.31;94912.94;5073450;28;20185;-79
2021/05/15 03:11:05;;;;;;;0.90;0.67;;;;;;;6.49;75.42;94914.56;5056872;28;20558;-80
2021/05/15 03:13:31;;;;;;;1.07;0.70;;;;;;;6.48;75.75;94918.09;5055495;28;20186;-79
2021/05/15 03:15:56;;;;;;;1.03;0.70;;;;;;;6.52;75.38;94907.34;5056626;28;20256;-80
2021/05/15 03:18:21;;;;;;;1.17;0.67;;;;;;;6.52;75.41;94904.75;5047915;28;20177;-79
2021/05/15 03:20:47;;;;;;;1.70;0.80;;;;;;;6.62;74.56;94903.94;5054745;28;20271;-79
2021/05/15 03:23:13;;;;;;;0.50;0.50;;;;;;;6.67;74.23;94896.59;5068728;28;20209;-78
2021/05/15 03:25:38;;;;;;;0.70;0.70;;;;;;;6.74;73.97;94895.91;5054378;28;20182;-81
2021/05/15 03:28:03;;;;;;;2.97;0.67;;;;;;;6.75;73.34;94897.53;5037122;28;20227;-78
2021/05/15 03:30:29;;;;;;;1.00;0.90;;;;;;;6.81;73.00;94896.97;5054158;28;20170;-78
2021/05/15 03:32:54;;;;;;;1.37;0.90;;;;;;;6.93;72.49;94895.03;5054167;28;20240;-78
2021/05/15 03:35:20;;;;;;;0.57;0.57;;;;;;;6.95;72.22;94894.88;5069061;28;20178;-80
2021/05/15 03:37:45;;;;;;;0.70;0.70;;;;;;;6.93;72.39;94897.59;5071415;28;20192;-78
2021/05/15 03:40:11;;;;;;;1.50;0.73;;;;;;;6.92;72.36;94888.25;5055015;28;20547;-78
2021/05/15 03:42:38;;;;;;;0.70;0.60;;;;;;;6.91;72.73;94891.78;5056100;28;20209;-79
2021/05/15 03:45:04;;;;;;;0.60;0.60;;;;;;;6.96;72.73;94901.66;5059882;28;20189;-78
2021/05/15 03:47:29;;;;;;;0.63;0.60;;;;;;;7.03;72.39;94897.56;5036459;28;20556;-77
2021/05/15 03:49:55;;;;;;;0.70;0.60;;;;;;;6.99;72.81;94893.66;5054898;28;20177;-80
2021/05/15 03:52:20;;;;;;;0.93;0.90;;;;;;;6.95;72.69;94900.03;5063863;28;20335;-80
2021/05/15 03:54:45;;;;;;;0.80;0.80;;;;;;;6.97;72.66;94898.13;5044484;28;20186;-78
2021/05/15 03:57:11;;;;;;;2.53;0.80;;;;;;;6.97;72.93;94895.53;5050168;28;20185;-78
2021/05/15 03:59:36;;;;;;;1.83;0.80;;;;;;;7.01;72.66;94894.31;5055465;28;20201;-79
2021/05/15 04:02:01;;;;;;;0.53;0.50;;;;;;;7.09;72.46;94903.00;5056605;28;20672;-78
2021/05/15 04:04:27;;;;;;;0.70;0.70;;;;;;;7.06;72.79;94902.44;5054199;28;20196;-79
2021/05/15 04:06:52;;;;;;;1.33;0.80;;;;;;;7.21;72.20;94906.19;5035937;28;20186;-79
2021/05/15 04:09:17;;;;;;;2.70;0.90;;;;;;;7.07;72.87;94901.50;5048199;28;20204;-79
2021/05/15 04:11:43;;;;;;;0.97;0.73;;;;;;;7.10;72.63;94899.44;5053903;28;20205;-78
2021/05/15 04:14:28;;;;;;;2.13;0.63;;;;;;;7.14;72.48;94909.47;5053459;28;20189;-78
2021/05/15 04:19:26;;;;;;;0.70;0.70;;;;;;;7.19;72.36;94907.31;5072113;28;20217;-78
2021/05/15 04:21:52;;;;;;;2.63;0.87;;;;;;;7.17;72.30;94901.47;5053870;28;20272;-77
2021/05/15 04:24:17;;;;;;;0.97;0.70;;;;;;;7.13;72.59;94900.94;5069020;28;20642;-77
2021/05/15 04:26:42;;;;;;;1.07;0.80;;;;;;;7.16;72.14;94900.66;5052286;28;20217;-79
2021/05/15 04:29:07;;;;;;;1.07;0.70;;;;;;;7.14;72.41;94899.97;5045325;28;20557;-78
2021/05/15 04:31:33;;;;;;;1.87;1.43;;;;;;;7.19;72.56;94902.13;5070287;28;20664;-77
2021/05/15 04:33:58;;;;;;;1.63;0.90;;;;;;;7.13;72.36;94905.28;5055437;28;20649;-78
2021/05/15 04:36:23;;;;;;;1.10;0.80;;;;;;;7.26;71.71;94904.00;5054105;28;20645;-77
2021/05/15 04:38:52;;;;;;;0.67;0.67;;;;;;;7.37;71.43;94901.22;5057083;28;20594;-78
2021/05/15 04:41:18;;;;;;;0.77;0.70;;;;;;;7.58;70.87;94897.56;5046234;28;20197;-78
2021/05/15 04:43:43;;;;;;;0.77;0.60;;;;;;;7.83;70.27;94904.63;5066539;28;20246;-80
2021/05/15 04:46:08;;;;;;;0.77;0.60;;;;;;;7.92;69.73;94895.19;5053569;28;20664;-79
2021/05/15 04:48:37;;;;;;;1.17;0.80;;;;;;;8.22;68.92;94889.66;5052241;28;20181;-79
2021/05/15 04:51:02;;;;;;;0.63;0.53;;;;;;;8.48;67.85;94883.72;5053035;28;20185;-80
2021/05/15 04:53:29;;;;;;;0.93;0.50;;;;;;;9.29;65.41;94894.56;5060784;28;20256;-78
2021/05/15 04:55:55;;;;;;;1.17;0.50;;;;;;;9.88;63.44;94887.59;5057001;28;20173;-78
2021/05/15 04:58:20;;;;;;;0.53;0.50;;;;;;;11.10;59.77;94893.75;5054456;28;20181;-79
2021/05/15 05:00:47;;;;;;;1.03;0.53;;;;;;;11.74;56.67;94895.28;5051312;28;20202;-80
2021/05/15 05:03:15;;;;;;;0.43;0.43;;;;;;;13.83;51.62;94910.28;5041602;28;20205;-76
2021/05/15 05:05:40;;;;;;;0.70;0.60;;;;;;;15.11;47.55;94899.03;5070129;28;20272;-79
2021/05/15 05:08:05;;;;;;;1.97;0.60;;;;;;;15.18;47.21;94901.69;5058278;28;20181;-80
2021/05/15 05:10:30;;;;;;;0.67;0.60;;;;;;;13.91;49.00;94898.91;5051671;28;20653;-79
2021/05/15 05:12:56;;;;;;;0.63;0.53;;;;;;;12.16;53.62;94902.72;5054868;28;20193;-79
2021/05/15 05:15:21;;;;;;;0.90;0.67;;;;;;;10.76;58.80;94890.41;5056666;28;20170;-78
2021/05/15 05:17:47;;;;;;;0.50;0.50;;;;;;;10.73;59.36;94885.56;5045691;28;20582;-77
2021/05/15 05:20:12;;;;;;;1.27;0.57;;;;;;;9.81;61.78;94891.81;5070643;28;20756;-79
2021/05/15 05:22:38;;;;;;;0.87;0.57;;;;;;;9.71;62.99;94892.91;5054112;28;20232;-79
2021/05/15 05:25:03;;;;;;;0.87;0.70;;;;;;;9.72;62.74;94897.13;5035495;28;20189;-78
2021/05/15 05:27:28;;;;;;;0.40;0.40;;;;;;;9.61;63.63;94893.03;5042551;28;20177;-79
2021/05/15 05:29:54;;;;;;;1.60;0.73;;;;;;;9.55;64.11;94891.09;5059610;28;20231;-78
2021/05/15 05:32:19;;;;;;;3.17;0.73;;;;;;;9.42;64.34;94890.72;5050665;28;20208;-79
2021/05/15 05:34:44;;;;;;;0.70;0.70;;;;;;;9.26;65.31;94886.28;5050531;28;20180;-79
2021/05/15 05:37:10;;;;;;;1.80;0.87;;;;;;;9.14;65.78;94888.34;5056214;28;20184;-79
2021/05/15 05:39:37;;;;;;;1.47;0.50;;;;;;;9.05;66.28;94892.66;5052305;28;20698;-79
2021/05/15 05:42:03;;;;;;;0.80;0.67;;;;;;;9.02;66.67;94890.38;5056861;28;20688;-79
2021/05/15 05:44:28;;;;;;;0.90;0.60;;;;;;;8.87;67.09;94881.56;5050851;28;20188;-79
2021/05/15 05:46:53;;;;;;;2.03;0.80;;;;;;;8.89;67.04;94878.81;5053680;28;20649;-78
2021/05/15 05:49:19;;;;;;;1.40;0.87;;;;;;;9.07;66.73;94882.13;5048443;28;20178;-79
2021/05/15 05:51:44;;;;;;;1.10;0.73;;;;;;;9.88;63.74;94876.41;5033661;28;20209;-79
2021/05/15 05:54:09;;;;;;;0.93;0.60;;;;;;;10.75;61.11;94883.59;5045986;28;20238;-78
2021/05/15 05:56:35;;;;;;;1.57;1.13;;;;;;;10.64;61.10;94886.53;5067298;28;20177;-80
2021/05/15 05:59:00;;;;;;;0.97;0.50;;;;;;;10.54;61.52;94882.50;5069959;28;20184;-79
2021/05/15 06:01:26;;;;;;;2.43;0.80;;;;;;;10.26;62.26;94884.63;5043592;28;20205;-79
2021/05/15 06:03:51;;;;;;;0.77;0.67;;;;;;;10.29;62.22;94879.09;5033916;28;20186;-79
2021/05/15 06:06:16;;;;;;;0.80;0.60;;;;;;;10.73;61.37;94882.97;5062146;28;20184;-77
2021/05/15 06:08:42;;;;;;;0.70;0.70;;;;;;;11.10;60.42;94884.19;5042266;28;20185;-77
2021/05/15 06:11:07;;;;;;;3.47;2.30;;;;;;;11.99;58.31;94883.00;5064098;28;20182;-78
2021/05/15 06:13:33;;;;;;;2.20;0.70;;;;;;;11.38;59.13;94889.78;5050363;28;20182;-77
2021/05/15 06:15:59;;;;;;;1.40;0.57;;;;;;;11.27;58.89;94884.94;5064256;28;20264;-77
2021/05/15 06:18:24;;;;;;;1.47;0.83;;;;;;;10.60;61.25;94881.81;5068328;28;20185;-78
2021/05/15 06:20:50;;;;;;;2.03;0.70;;;;;;;10.55;61.57;94881.53;5068978;28;20209;-77
2021/05/15 06:23:15;;;;;;;1.00;0.70;;;;;;;10.47;62.00;94879.75;5065311;28;20262;-78
2021/05/15 06:25:41;;;;;;;1.57;0.60;;;;;;;10.21;62.65;94883.28;5066608;28;20189;-77
2021/05/15 06:28:06;;;;;;;1.83;0.60;;;;;;;10.33;62.40;94881.19;5047575;28;20184;-78
2021/05/15 06:30:32;;;;;;;2.67;0.50;;;;;;;10.10;63.81;94880.19;5050927;28;20189;-78
2021/05/15 06:32:57;;;;;;;1.33;0.50;;;;;;;10.25;63.40;94882.97;5060421;28;20255;-77
2021/05/15 06:35:23;;;;;;;2.43;0.70;;;;;;;10.26;63.35;94882.84;5053067;28;20186;-77
2021/05/15 06:37:48;;;;;;;0.80;0.57;;;;;;;9.94;64.87;94880.97;5041437;28;20193;-75
2021/05/15 06:40:13;;;;;;;1.77;0.60;;;;;;;10.07;63.94;94876.13;5059749;28;20204;-76
2021/05/15 06:42:39;;;;;;;1.17;0.90;;;;;;;9.98;64.59;94876.25;5043303;28;20612;-78
2021/05/15 06:45:06;;;;;;;1.73;1.00;;;;;;;10.29;63.68;94879.91;5060361;28;20215;-77
2021/05/15 06:47:31;;;;;;;1.40;0.73;;;;;;;10.23;64.23;94879.72;5057007;28;20186;-77
2021/05/15 06:49:56;;;;;;;1.27;0.90;;;;;;;10.00;64.82;94882.13;5054450;28;20592;-78
2021/05/15 06:52:22;;;;;;;0.70;0.70;;;;;;;10.09;64.32;94887.16;5070514;28;20442;-77
2021/05/15 06:54:47;;;;;;;1.97;0.70;;;;;;;10.20;64.38;94880.84;5037461;28;20185;-78
2021/05/15 06:57:13;;;;;;;1.83;0.80;;;;;;;10.27;64.13;94884.44;5053178;28;20197;-78
2021/05/15 06:59:38;;;;;;;2.63;0.90;;;;;;;10.36;63.83;94882.66;5068618;28;20209;-78
2021/05/15 07:02:04;;;;;;;0.50;0.50;;;;;;;10.46;63.49;94885.91;5056040;28;20225;-78
2021/05/15 07:04:29;;;;;;;1.23;0.60;;;;;;;10.65;62.86;94885.56;5063470;28;20223;-78
2021/05/15 07:06:55;;;;;;;1.13;0.60;;;;;;;10.46;63.63;94883.31;5038712;28;20182;-78
2021/05/15 07:09:20;;;;;;;1.90;0.77;;;;;;;10.46;63.75;94886.72;5071860;28;20177;-74
2021/05/15 07:11:46;;;;;;;1.00;0.63;;;;;;;10.23;63.49;94880.53;5066821;28;20684;-76
2021/05/15 07:14:11;;;;;;;0.57;0.57;;;;;;;10.01;64.22;94881.97;5036640;28;20208;-76
2021/05/15 07:16:36;;;;;;;1.40;1.10;;;;;;;10.22;63.90;94873.72;5066105;28;20185;-78
2021/05/15 07:19:02;;;;;;;4.23;2.30;;;;;;;10.44;63.85;94873.09;5072656;28;20184;-79
2021/05/15 07:21:27;;;;;;;2.90;1.40;;;;;;;10.68;62.74;94868.84;5071309;28;20201;-77
2021/05/15 07:23:53;;;;;;;1.30;0.77;;;;;;;10.64;62.93;94870.97;5066771;28;20221;-77
2021/05/15 07:26:18;;;;;;;1.10;0.90;;;;;;;10.63;62.93;94868.53;5045786;28;20205;-77
2021/05/15 07:28:44;;;;;;;1.03;0.70;;;;;;;10.85;63.03;94878.22;5062644;28;20182;-77
2021/05/15 07:31:09;;;;;;;1.17;0.43;;;;;;;10.94;62.09;94859.03;5061788;28;20197;-75
2021/05/15 07:33:34;;;;;;;0.60;0.50;;;;;;;11.21;60.69;94857.00;5054920;28;20643;-76
2021/05/15 07:35:59;;;;;;;2.00;0.60;;;;;;;11.18;61.38;94865.16;5066376;28;20526;-76
2021/05/15 07:38:26;;;;;;;1.10;0.80;;;;;;;11.24;61.26;94861.91;5057552;28;20719;-76
2021/05/15 07:40:55;;;;;;;0.60;0.60;;;;;;;11.50;59.39;94857.25;5044737;28;20285;-76
2021/05/15 07:43:23;;;;;;;1.43;0.87;;;;;;;11.59;58.54;94863.22;5069254;28;20264;-76
2021/05/15 07:45:50;;;;;;;1.43;0.70;;;;;;;11.61;58.68;94861.25;5051707;28;20539;-77
2021/05/15 07:48:16;;;;;;;0.73;0.70;;;;;;;11.55;58.37;94862.72;5037332;28;20185;-77
2021/05/15 07:50:41;;;;;;;0.80;0.67;;;;;;;11.60;57.84;94852.63;5071915;28;20650;-77
2021/05/15 07:53:06;;;;;;;1.17;0.70;;;;;;;11.80;58.35;94855.63;5072118;28;20205;-77
2021/05/15 07:55:32;;;;;;;1.27;0.60;;;;;;;11.65;57.57;94857.31;5053650;28;20213;-75
2021/05/15 07:57:57;;;;;;;1.20;0.67;;;;;;;11.37;57.74;94851.75;5060006;28;20205;-75
2021/05/15 08:00:22;;;;;;;2.50;0.60;;;;;;;11.41;58.62;94849.66;5064311;28;20205;-75
2021/05/15 08:02:48;;;;;;;1.20;0.80;;;;;;;11.41;59.88;94850.47;5060681;28;20237;-74
2021/05/15 08:05:13;;;;;;;0.60;0.50;;;;;;;11.31;59.52;94849.84;5061483;28;20175;-74
2021/05/15 08:07:39;;;;;;;1.40;0.50;;;;;;;11.35;60.01;94851.94;5067193;28;20188;-74
2021/05/15 08:10:06;;;;;;;1.37;0.57;;;;;;;11.27;59.18;94851.16;5063957;28;20292;-74
2021/05/15 08:12:32;;;;;;;0.77;0.60;;;;;;;11.40;58.51;94848.03;5040342;28;20204;-76
2021/05/15 08:14:58;;;;;;;0.50;0.50;;;;;;;11.50;57.54;94849.44;5056000;28;20645;-76
2021/05/15 08:17:23;;;;;;;0.40;0.40;;;;;;;11.61;55.83;94850.84;5054225;28;20186;-76
2021/05/15 08:19:48;;;;;;;0.50;0.50;;;;;;;11.38;56.49;94850.78;5050945;28;20616;-76
2021/05/15 08:22:13;;;;;;;1.43;0.70;;;;;;;11.84;55.24;94850.91;5064200;28;20208;-76
2021/05/15 08:24:39;;;;;;;2.47;0.63;;;;;;;11.91;55.58;94847.44;5073257;28;20219;-76
2021/05/15 08:27:04;;;;;;;0.73;0.50;;;;;;;11.61;55.36;94841.25;5053260;28;20190;-76
2021/05/15 08:29:30;;;;;;;0.93;0.53;;;;;;;11.84;54.63;94853.53;5066156;28;20235;-77
2021/05/15 08:31:56;;;;;;;1.87;0.50;;;;;;;11.64;53.86;94846.09;5044976;28;20263;-77
2021/05/15 08:34:21;;;;;;;0.87;0.50;;;;;;;11.55;54.01;94841.09;5068375;28;20188;-76
2021/05/15 08:36:47;;;;;;;0.40;0.40;;;;;;;11.88;54.46;94836.56;5054051;28;20551;-77
2021/05/15 08:39:12;;;;;;;1.53;0.40;;;;;;;12.00;54.37;94842.16;5056721;28;20611;-77
2021/05/15 08:41:37;;;;;;;0.50;0.50;;;;;;;11.96;53.46;94839.13;5071101;28;20208;-77
2021/05/15 08:44:04;;;;;;;0.63;0.60;;;;;;;11.73;53.50;94840.84;5042829;28;20206;-77
2021/05/15 08:46:30;;;;;;;1.30;0.60;;;;;;;11.82;54.68;94834.66;5051758;28;20182;-77
2021/05/15 08:49:04;;;;;;;0.80;0.50;;;;;;;11.99;54.22;94832.75;5052403;28;20184;-76
2021/05/15 08:51:30;;;;;;;1.40;0.70;;;;;;;12.15;53.62;94838.66;5058878;28;20704;-77
2021/05/15 08:53:57;;;;;;;0.80;0.50;;;;;;;12.32;51.90;94833.31;5072331;28;20208;-76
2021/05/15 08:56:23;;;;;;;0.87;0.50;;;;;;;12.77;51.03;94830.63;5057232;28;20247;-77
2021/05/15 08:58:48;;;;;;;1.23;0.60;;;;;;;12.83;50.83;94831.72;5053513;28;20182;-77
2021/05/15 09:01:14;;;;;;;1.77;0.50;;;;;;;13.26;50.00;94824.91;5050892;28;20263;-77
2021/05/15 09:03:41;;;;;;;0.83;0.40;;;;;;;13.93;49.42;94823.03;5063808;28;20185;-75
2021/05/15 09:06:06;;;;;;;0.50;0.50;;;;;;;13.31;49.06;94832.97;5069063;28;20710;-77
2021/05/15 09:08:32;;;;;;;1.40;0.60;;;;;;;13.72;49.64;94824.63;5066879;28;20196;-77
2021/05/15 09:10:57;;;;;;;0.50;0.40;;;;;;;14.30;48.92;94824.59;5066541;28;20697;-77
2021/05/15 09:13:25;;;;;;;0.50;0.50;;;;;;;13.58;47.81;94828.09;5045400;28;20272;-77
2021/05/15 09:16:02;;;;;;;1.33;0.60;;;;;;;12.82;49.38;94839.72;5055248;28;20183;-77
2021/05/15 09:18:32;;;;;;;0.93;0.80;;;;;;;12.35;51.42;94831.16;5052609;28;20272;-77
2021/05/15 09:21:01;;;;;;;2.10;0.60;;;;;;;11.97;51.77;94824.31;5051441;28;20205;-77
2021/05/15 09:23:28;;;;;;;1.57;0.60;;;;;;;11.96;51.74;94820.09;5059454;28;20178;-77
2021/05/15 09:26:05;;;;;;;0.63;0.50;;;;;;;11.83;52.94;94818.06;5070322;28;20268;-77
2021/05/15 09:28:44;;;;;;;0.60;0.40;;;;;;;11.97;52.60;94812.13;5053143;28;20243;-76
2021/05/15 09:31:32;;;;;;;1.40;0.57;;;;;;;11.99;52.44;94817.13;5052692;28;20251;-77
2021/05/15 09:34:00;;;;;;;0.83;0.57;;;;;;;12.45;51.33;94804.88;5050724;28;20178;-77
2021/05/15 09:36:31;;;;;;;2.73;0.53;;;;;;;12.76;50.64;94804.75;5049836;28;20185;-76
2021/05/15 09:39:02;;;;;;;2.20;0.70;;;;;;;13.18;50.85;94809.34;5051673;28;20177;-77
2021/05/15 09:41:51;;;;;;;2.40;0.60;;;;;;;13.40;49.58;94814.63;5052566;28;20202;-77
2021/05/15 09:44:28;;;;;;;1.90;0.60;;;;;;;13.82;49.22;94811.28;5063465;28;20185;-77
2021/05/15 09:46:55;;;;;;;4.77;1.07;;;;;;;13.23;48.94;94808.81;5068487;28;20188;-77
2021/05/15 09:49:24;;;;;;;4.77;0.83;;;;;;;13.00;50.62;94798.47;5050506;28;20174;-77
2021/05/15 09:51:52;;;;;;;1.20;0.50;;;;;;;13.11;49.70;94795.41;5052578;28;20267;-77
2021/05/15 09:54:21;;;;;;;2.97;0.90;;;;;;;13.07;49.13;94798.53;5051908;28;20186;-77
2021/05/15 09:57:08;;;;;;;0.97;0.60;;;;;;;12.92;49.77;94801.16;5069425;28;20232;-77
2021/05/15 09:59:36;;;;;;;2.07;0.57;;;;;;;12.45;50.63;94794.47;5044527;28;20577;-76
2021/05/15 10:02:08;;;;;;;0.93;0.50;;;;;;;12.84;50.25;94794.25;5052349;28;20206;-76
2021/05/15 10:04:33;;;;;;;2.03;0.70;;;;;;;12.65;49.86;94785.16;5067312;28;20268;-77
2021/05/15 10:07:00;;;;;;;2.70;0.73;;;;;;;12.69;48.89;94789.00;5066650;28;20235;-77
2021/05/15 10:09:32;;;;;;;1.37;0.70;;;;;;;13.04;49.01;94787.50;5050299;28;20201;-77
2021/05/15 10:11:59;;;;;;;2.20;0.80;;;;;;;14.07;48.16;94776.00;5051147;28;20285;-76
2021/05/15 10:14:25;;;;;;;1.13;0.60;;;;;;;14.67;46.18;94776.50;5051490;28;20193;-77
2021/05/15 10:16:50;;;;;;;1.10;0.67;;;;;;;14.40;43.95;94768.44;5049586;28;20177;-77
2021/05/15 10:19:16;;;;;;;2.93;0.70;;;;;;;14.69;43.93;94761.41;5054996;28;20256;-77
2021/05/15 10:21:42;;;;;;;2.40;0.70;;;;;;;14.47;42.78;94757.25;5068279;28;20204;-77
2021/05/15 10:24:16;;;;;;;1.90;0.80;;;;;;;14.64;43.41;94743.69;5057763;28;20194;-77
2021/05/15 10:26:41;;;;;;;3.90;1.57;;;;;;;14.98;43.59;94744.69;5052604;28;20190;-77
2021/05/15 10:29:07;;;;;;;3.20;1.40;;;;;;;13.63;43.47;94746.69;5051024;28;20188;-77
2021/05/15 10:31:40;;;;;;;2.93;0.80;;;;;;;13.15;44.67;94754.94;5067883;28;20208;-77
2021/05/15 10:34:07;;;;;;;2.87;0.80;;;;;;;13.42;45.47;94748.25;5070048;28;20266;-77
2021/05/15 10:36:43;;;;;;;4.20;1.00;;;;;;;14.03;45.29;94740.81;5058144;28;20190;-78
2021/05/15 10:39:08;;;;;;;1.57;0.97;;;;;;;14.17;44.49;94731.28;5058844;28;20261;-77
2021/05/15 10:41:44;;;;;;;3.23;1.07;;;;;;;14.22;44.47;94739.34;5065059;28;20295;-77
2021/05/15 10:44:13;;;;;;;4.37;0.80;;;;;;;14.52;42.85;94740.00;5073753;28;20187;-77
2021/05/15 10:46:47;;;;;;;2.20;0.70;;;;;;;14.27;43.90;94726.53;5069295;28;20283;-78
2021/05/15 10:49:25;;;;;;;1.90;0.83;;;;;;;14.67;43.37;94726.84;5058521;28;20173;-77
2021/05/15 10:51:56;;;;;;;2.73;0.67;;;;;;;14.62;41.81;94713.53;5072019;28;20209;-77
2021/05/15 10:54:41;;;;;;;1.80;0.90;;;;;;;14.81;41.32;94715.44;5050345;28;20182;-77
2021/05/15 10:57:09;;;;;;;1.63;0.80;;;;;;;14.56;40.81;94709.06;5055050;28;20691;-79
2021/05/15 10:59:36;;;;;;;1.20;0.70;;;;;;;14.81;39.95;94718.06;5056626;28;20197;-78
2021/05/15 11:02:06;;;;;;;2.00;0.67;;;;;;;15.13;40.17;94711.38;5069716;28;20287;-77
2021/05/15 11:04:34;;;;;;;2.83;0.93;;;;;;;15.52;39.64;94710.66;5041453;28;20701;-77
2021/05/15 11:07:04;;;;;;;2.60;0.70;;;;;;;15.23;39.44;94697.91;5047934;28;20195;-78
2021/05/15 11:09:33;;;;;;;2.40;0.70;;;;;;;15.22;40.21;94709.38;5062609;28;20185;-76
2021/05/15 11:12:16;;;;;;;1.13;0.63;;;;;;;15.25;39.87;94708.97;5062078;28;20194;-78
2021/05/15 11:14:46;;;;;;;0.80;0.50;;;;;;;14.78;39.33;94701.97;5055234;28;20186;-77
2021/05/15 11:17:21;;;;;;;1.93;0.70;;;;;;;14.68;40.77;94702.31;5070570;28;20177;-75
2021/05/15 11:19:48;;;;;;;2.77;0.70;;;;;;;15.13;38.86;94687.84;5052673;28;20263;-77
2021/05/15 11:22:14;;;;;;;1.03;0.60;;;;;;;15.67;38.83;94683.56;5058676;28;20216;-77
2021/05/15 11:24:50;;;;;;;1.40;0.70;;;;;;;15.56;38.99;94675.25;5070910;28;20230;-77
2021/05/15 11:27:17;;;;;;;0.90;0.70;;;;;;;15.37;39.20;94673.41;5041207;28;20181;-77
2021/05/15 11:29:43;;;;;;;3.20;0.63;;;;;;;14.57;38.36;94674.09;5056331;28;20276;-76
2021/05/15 11:32:13;;;;;;;0.93;0.50;;;;;;;14.72;40.51;94675.59;5070680;28;20284;-76
2021/05/15 11:34:40;;;;;;;2.30;0.70;;;;;;;14.53;40.76;94665.84;5045400;28;20197;-77
2021/05/15 11:37:06;;;;;;;1.17;0.90;;;;;;;15.01;40.94;94665.84;5055680;28;20181;-77